TimeMDT,TemperatureF,Dew PointF,Humidity,Sea Level PressureIn,VisibilityMPH,Wind Direction,Wind SpeedMPH,Gust SpeedMPH,PrecipitationIn,Events,Conditions,WindDirDegrees,DateUTC
12:00 AM,56.1,40.5,56,29.72,-9999.0,WSW,4.6,-,N/A,,Unknown,250,2013-09-17 06:00:00
1:00 AM,56.1,40.1,55,29.71,-9999.0,West,5.8,-,N/A,,Unknown,270,2013-09-17 07:00:00
2:00 AM,55.2,40.6,58,29.73,-9999.0,WSW,5.8,-,N/A,,Unknown,250,2013-09-17 08:00:00
3:00 AM,52.3,43.0,70,29.73,-9999.0,WSW,6.9,-,N/A,,Unknown,240,2013-09-17 09:00:00
4:00 AM,51.1,43.2,74,29.77,-9999.0,West,5.8,-,N/A,,Unknown,260,2013-09-17 10:00:00
5:00 AM,47.1,44.4,90,29.78,-9999.0,SW,3.5,-,N/A,,Unknown,220,2013-09-17 11:00:00
6:00 AM,47.1,43.2,86,29.78,-9999.0,SW,5.8,-,N/A,,Unknown,220,2013-09-17 12:00:00
7:00 AM,46.2,42.4,87,29.79,-9999.0,WSW,3.5,-,N/A,,Unknown,240,2013-09-17 13:00:00
8:00 AM,45.3,41.9,88,29.80,-9999.0,SW,5.8,-,N/A,,Unknown,230,2013-09-17 14:00:00
9:00 AM,50.0,41.7,73,29.78,-9999.0,SW,8.1,-,N/A,,Unknown,220,2013-09-17 15:00:00
10:00 AM,53.8,41.9,64,29.76,-9999.0,SW,9.2,-,N/A,,Unknown,230,2013-09-17 16:00:00
11:00 AM,55.6,42.1,60,29.75,-9999.0,SW,6.9,-,N/A,,Unknown,220,2013-09-17 17:00:00
12:00 PM,56.1,42.3,60,29.74,-9999.0,SW,5.8,-,N/A,,Unknown,230,2013-09-17 18:00:00
1:00 PM,59.0,39.6,49,29.73,-9999.0,SW,5.8,-,N/A,,Unknown,230,2013-09-17 19:00:00
2:00 PM,58.5,39.2,49,29.74,-9999.0,NW,5.8,-,N/A,,Unknown,320,2013-09-17 20:00:00
3:00 PM,60.4,37.6,43,29.72,-9999.0,SE,2.3,-,N/A,,Unknown,140,2013-09-17 21:00:00
4:00 PM,59.5,40.5,49,29.73,-9999.0,West,5.8,-,N/A,,Unknown,280,2013-09-17 22:00:00
5:00 PM,59.7,36.7,42,29.72,-9999.0,WNW,3.5,-,N/A,,Unknown,290,2013-09-17 23:00:00
6:00 PM,58.5,41.7,54,29.72,-9999.0,SW,4.6,-,N/A,,Unknown,230,2013-09-18 00:00:00
7:00 PM,54.9,40.8,59,29.73,-9999.0,SW,3.5,-,N/A,,Unknown,230,2013-09-18 01:00:00
8:00 PM,52.9,42.1,67,29.73,-9999.0,SW,3.5,-,N/A,,Unknown,230,2013-09-18 02:00:00
9:00 PM,50.0,43.0,77,29.73,-9999.0,NE,1.2,-,N/A,,Unknown,50,2013-09-18 03:00:00
10:00 PM,49.1,42.3,77,29.73,-9999.0,NNW,2.3,-,N/A,,Unknown,340,2013-09-18 04:00:00
11:00 PM,48.4,43.2,82,29.75,-9999.0,North,3.5,-,N/A,,Unknown,10,2013-09-18 05:00:00